sensor_id;sensor_type;location;lat;lon;timestamp;P1;durP1;ratioP1;P2;durP2;ratioP2
54259;SDS011;40172;53.022;7.012;2023-02-21T00:01:34;28.25;;;14.18;;
54259;SDS011;40172;53.022;7.012;2023-02-21T00:07:02;25.13;;;13.90;;
54259;SDS011;40172;53.022;7.012;2023-02-21T00:09:47;31.38;;;15.00;;
54259;SDS011;40172;53.022;7.012;2023-02-21T00:12:31;32.80;;;15.30;;
54259;SDS011;40172;53.022;7.012;2023-02-21T00:15:15;33.75;;;14.60;;
54259;SDS011;40172;53.022;7.012;2023-02-21T00:17:59;32.95;;;15.10;;
54259;SDS011;40172;53.022;7.012;2023-02-21T00:20:43;29.95;;;14.50;;
54259;SDS011;40172;53.022;7.012;2023-02-21T00:26:18;29.27;;;14.60;;
54259;SDS011;40172;53.022;7.012;2023-02-21T00:29:03;32.50;;;15.55;;
54259;SDS011;40172;53.022;7.012;2023-02-21T00:31:48;32.42;;;15.10;;
54259;SDS011;40172;53.022;7.012;2023-02-21T00:34:32;32.15;;;15.45;;
54259;SDS011;40172;53.022;7.012;2023-02-21T00:37:16;32.88;;;15.77;;
54259;SDS011;40172;53.022;7.012;2023-02-21T00:40:00;29.30;;;14.88;;
54259;SDS011;40172;53.022;7.012;2023-02-21T00:42:44;36.35;;;16.10;;
54259;SDS011;40172;53.022;7.012;2023-02-21T00:45:29;31.88;;;14.93;;
54259;SDS011;40172;53.022;7.012;2023-02-21T00:48:18;31.98;;;15.25;;
54259;SDS011;40172;53.022;7.012;2023-02-21T00:51:06;30.08;;;15.68;;
54259;SDS011;40172;53.022;7.012;2023-02-21T00:53:50;34.72;;;15.98;;
54259;SDS011;40172;53.022;7.012;2023-02-21T00:56:34;33.65;;;16.23;;
54259;SDS011;40172;53.022;7.012;2023-02-21T01:02:03;33.10;;;15.73;;
54259;SDS011;40172;53.022;7.012;2023-02-21T01:04:47;36.72;;;16.90;;
54259;SDS011;40172;53.022;7.012;2023-02-21T01:07:31;32.70;;;17.08;;
54259;SDS011;40172;53.022;7.012;2023-02-21T01:10:16;40.08;;;17.23;;
54259;SDS011;40172;53.022;7.012;2023-02-21T01:13:00;38.13;;;18.20;;
54259;SDS011;40172;53.022;7.012;2023-02-21T01:15:46;41.65;;;18.15;;
54259;SDS011;40172;53.022;7.012;2023-02-21T01:21:15;33.30;;;18.95;;
54259;SDS011;40172;53.022;7.012;2023-02-21T01:24:01;41.35;;;18.23;;
54259;SDS011;40172;53.022;7.012;2023-02-21T01:26:46;38.17;;;17.92;;
54259;SDS011;40172;53.022;7.012;2023-02-21T01:29:30;33.88;;;17.75;;
54259;SDS011;40172;53.022;7.012;2023-02-21T01:32:14;38.88;;;17.75;;
54259;SDS011;40172;53.022;7.012;2023-02-21T01:34:58;37.33;;;18.00;;
54259;SDS011;40172;53.022;7.012;2023-02-21T01:40:27;37.28;;;18.10;;
54259;SDS011;40172;53.022;7.012;2023-02-21T01:43:15;34.80;;;18.23;;
54259;SDS011;40172;53.022;7.012;2023-02-21T01:46:01;38.78;;;18.27;;
54259;SDS011;40172;53.022;7.012;2023-02-21T01:48:45;39.45;;;17.73;;
54259;SDS011;40172;53.022;7.012;2023-02-21T01:51:32;36.78;;;17.42;;
54259;SDS011;40172;53.022;7.012;2023-02-21T01:54:20;33.75;;;17.55;;
54259;SDS011;40172;53.022;7.012;2023-02-21T01:57:05;36.72;;;17.55;;
54259;SDS011;40172;53.022;7.012;2023-02-21T01:59:51;36.38;;;17.60;;
54259;SDS011;40172;53.022;7.012;2023-02-21T02:02:46;42.15;;;18.30;;
54259;SDS011;40172;53.022;7.012;2023-02-21T02:05:36;37.28;;;17.65;;
54259;SDS011;40172;53.022;7.012;2023-02-21T02:08:22;34.58;;;18.10;;
54259;SDS011;40172;53.022;7.012;2023-02-21T02:11:22;39.28;;;18.58;;
54259;SDS011;40172;53.022;7.012;2023-02-21T02:22:27;34.13;;;18.10;;
54259;SDS011;40172;53.022;7.012;2023-02-21T02:36:27;41.22;;;19.02;;
54259;SDS011;40172;53.022;7.012;2023-02-21T02:41:46;39.85;;;20.25;;
54259;SDS011;40172;53.022;7.012;2023-02-21T02:44:37;41.15;;;21.38;;
54259;SDS011;40172;53.022;7.012;2023-02-21T02:47:06;44.92;;;21.85;;
54259;SDS011;40172;53.022;7.012;2023-02-21T02:49:37;41.92;;;22.02;;
54259;SDS011;40172;53.022;7.012;2023-02-21T02:52:07;50.10;;;23.23;;
54259;SDS011;40172;53.022;7.012;2023-02-21T02:54:33;41.30;;;21.95;;
54259;SDS011;40172;53.022;7.012;2023-02-21T02:57:00;43.25;;;21.70;;
54259;SDS011;40172;53.022;7.012;2023-02-21T02:59:27;40.00;;;21.40;;
54259;SDS011;40172;53.022;7.012;2023-02-21T03:05:27;43.67;;;21.85;;
54259;SDS011;40172;53.022;7.012;2023-02-21T03:10:39;41.50;;;20.80;;
54259;SDS011;40172;53.022;7.012;2023-02-21T03:15:51;39.13;;;20.45;;
54259;SDS011;40172;53.022;7.012;2023-02-21T03:18:39;41.28;;;20.05;;
54259;SDS011;40172;53.022;7.012;2023-02-21T03:21:10;41.60;;;19.90;;
54259;SDS011;40172;53.022;7.012;2023-02-21T03:23:43;44.63;;;20.67;;
54259;SDS011;40172;53.022;7.012;2023-02-21T03:26:12;45.25;;;20.25;;
54259;SDS011;40172;53.022;7.012;2023-02-21T03:28:39;44.63;;;21.45;;
54259;SDS011;40172;53.022;7.012;2023-02-21T03:31:06;38.05;;;19.42;;
54259;SDS011;40172;53.022;7.012;2023-02-21T03:33:33;38.33;;;20.33;;
54259;SDS011;40172;53.022;7.012;2023-02-21T03:35:59;42.10;;;19.88;;
54259;SDS011;40172;53.022;7.012;2023-02-21T03:38:29;39.55;;;20.63;;
54259;SDS011;40172;53.022;7.012;2023-02-21T03:40:55;37.83;;;20.10;;
54259;SDS011;40172;53.022;7.012;2023-02-21T03:43:21;35.00;;;19.42;;
54259;SDS011;40172;53.022;7.012;2023-02-21T03:45:46;48.78;;;20.75;;
54259;SDS011;40172;53.022;7.012;2023-02-21T03:48:12;38.90;;;20.38;;
54259;SDS011;40172;53.022;7.012;2023-02-21T03:50:38;36.90;;;19.73;;
54259;SDS011;40172;53.022;7.012;2023-02-21T03:53:03;41.15;;;20.75;;
54259;SDS011;40172;53.022;7.012;2023-02-21T03:55:29;37.63;;;18.95;;
54259;SDS011;40172;53.022;7.012;2023-02-21T03:57:55;40.50;;;19.98;;
54259;SDS011;40172;53.022;7.012;2023-02-21T04:00:20;41.50;;;20.05;;
54259;SDS011;40172;53.022;7.012;2023-02-21T04:02:46;41.20;;;20.10;;
54259;SDS011;40172;53.022;7.012;2023-02-21T04:05:12;38.65;;;19.75;;
54259;SDS011;40172;53.022;7.012;2023-02-21T04:07:37;41.92;;;20.50;;
54259;SDS011;40172;53.022;7.012;2023-02-21T04:10:03;39.75;;;21.08;;
54259;SDS011;40172;53.022;7.012;2023-02-21T04:12:28;38.33;;;20.90;;
54259;SDS011;40172;53.022;7.012;2023-02-21T04:14:54;41.22;;;21.45;;
54259;SDS011;40172;53.022;7.012;2023-02-21T04:17:20;39.75;;;20.60;;
54259;SDS011;40172;53.022;7.012;2023-02-21T04:19:46;38.25;;;20.40;;
54259;SDS011;40172;53.022;7.012;2023-02-21T04:22:12;40.17;;;19.92;;
54259;SDS011;40172;53.022;7.012;2023-02-21T04:24:37;44.58;;;20.63;;
54259;SDS011;40172;53.022;7.012;2023-02-21T04:27:03;37.50;;;20.13;;
54259;SDS011;40172;53.022;7.012;2023-02-21T04:29:29;41.35;;;20.95;;
54259;SDS011;40172;53.022;7.012;2023-02-21T04:31:54;41.38;;;21.75;;
54259;SDS011;40172;53.022;7.012;2023-02-21T04:34:20;43.25;;;21.67;;
54259;SDS011;40172;53.022;7.012;2023-02-21T04:36:46;41.40;;;21.15;;
54259;SDS011;40172;53.022;7.012;2023-02-21T04:39:12;37.30;;;21.45;;
54259;SDS011;40172;53.022;7.012;2023-02-21T04:41:37;41.83;;;22.30;;
54259;SDS011;40172;53.022;7.012;2023-02-21T04:44:03;36.95;;;21.27;;
54259;SDS011;40172;53.022;7.012;2023-02-21T04:46:30;37.10;;;22.17;;
54259;SDS011;40172;53.022;7.012;2023-02-21T04:48:55;43.45;;;22.55;;
54259;SDS011;40172;53.022;7.012;2023-02-21T04:51:21;40.58;;;22.65;;
54259;SDS011;40172;53.022;7.012;2023-02-21T04:53:48;41.92;;;22.88;;
54259;SDS011;40172;53.022;7.012;2023-02-21T04:56:14;42.40;;;22.88;;
54259;SDS011;40172;53.022;7.012;2023-02-21T04:58:42;42.63;;;23.58;;
54259;SDS011;40172;53.022;7.012;2023-02-21T05:01:09;42.33;;;23.15;;
54259;SDS011;40172;53.022;7.012;2023-02-21T05:03:36;38.95;;;22.73;;
54259;SDS011;40172;53.022;7.012;2023-02-21T05:06:01;44.08;;;24.35;;
54259;SDS011;40172;53.022;7.012;2023-02-21T05:08:27;40.15;;;23.17;;
54259;SDS011;40172;53.022;7.012;2023-02-21T05:10:53;40.58;;;23.98;;
54259;SDS011;40172;53.022;7.012;2023-02-21T05:13:19;42.92;;;23.30;;
54259;SDS011;40172;53.022;7.012;2023-02-21T05:15:45;43.17;;;24.00;;
54259;SDS011;40172;53.022;7.012;2023-02-21T05:18:11;47.67;;;24.73;;
54259;SDS011;40172;53.022;7.012;2023-02-21T05:20:36;44.05;;;24.92;;
54259;SDS011;40172;53.022;7.012;2023-02-21T05:23:02;43.28;;;25.02;;
54259;SDS011;40172;53.022;7.012;2023-02-21T05:25:28;43.63;;;25.90;;
54259;SDS011;40172;53.022;7.012;2023-02-21T05:27:53;48.63;;;25.73;;
54259;SDS011;40172;53.022;7.012;2023-02-21T05:30:20;45.00;;;24.95;;
54259;SDS011;40172;53.022;7.012;2023-02-21T05:32:47;44.33;;;26.33;;
54259;SDS011;40172;53.022;7.012;2023-02-21T05:35:14;40.30;;;26.00;;
54259;SDS011;40172;53.022;7.012;2023-02-21T05:37:41;41.80;;;25.27;;
54259;SDS011;40172;53.022;7.012;2023-02-21T05:40:08;40.85;;;25.70;;
54259;SDS011;40172;53.022;7.012;2023-02-21T05:42:36;47.67;;;26.15;;
54259;SDS011;40172;53.022;7.012;2023-02-21T05:45:01;46.45;;;26.05;;
54259;SDS011;40172;53.022;7.012;2023-02-21T05:47:30;41.72;;;25.73;;
54259;SDS011;40172;53.022;7.012;2023-02-21T05:49:58;45.92;;;27.08;;
54259;SDS011;40172;53.022;7.012;2023-02-21T05:52:24;44.38;;;26.52;;
54259;SDS011;40172;53.022;7.012;2023-02-21T05:54:49;39.90;;;25.95;;
54259;SDS011;40172;53.022;7.012;2023-02-21T05:57:15;45.20;;;26.55;;
54259;SDS011;40172;53.022;7.012;2023-02-21T05:59:41;47.67;;;26.33;;
54259;SDS011;40172;53.022;7.012;2023-02-21T06:02:07;45.60;;;26.02;;
54259;SDS011;40172;53.022;7.012;2023-02-21T06:04:33;46.33;;;26.15;;
54259;SDS011;40172;53.022;7.012;2023-02-21T06:06:58;44.78;;;26.23;;
54259;SDS011;40172;53.022;7.012;2023-02-21T06:09:24;40.03;;;24.95;;
54259;SDS011;40172;53.022;7.012;2023-02-21T06:11:49;42.70;;;25.27;;
54259;SDS011;40172;53.022;7.012;2023-02-21T06:14:19;45.55;;;25.70;;
54259;SDS011;40172;53.022;7.012;2023-02-21T06:16:45;43.00;;;25.50;;
54259;SDS011;40172;53.022;7.012;2023-02-21T06:19:11;39.58;;;24.60;;
54259;SDS011;40172;53.022;7.012;2023-02-21T06:21:38;39.63;;;24.15;;
54259;SDS011;40172;53.022;7.012;2023-02-21T06:24:07;39.65;;;25.35;;
54259;SDS011;40172;53.022;7.012;2023-02-21T06:26:34;43.25;;;25.75;;
54259;SDS011;40172;53.022;7.012;2023-02-21T06:29:01;41.55;;;25.83;;
54259;SDS011;40172;53.022;7.012;2023-02-21T06:31:27;43.90;;;25.75;;
54259;SDS011;40172;53.022;7.012;2023-02-21T06:33:53;37.83;;;25.55;;
54259;SDS011;40172;53.022;7.012;2023-02-21T06:36:20;42.97;;;25.45;;
54259;SDS011;40172;53.022;7.012;2023-02-21T06:38:49;40.17;;;25.15;;
54259;SDS011;40172;53.022;7.012;2023-02-21T06:41:17;41.92;;;26.08;;
54259;SDS011;40172;53.022;7.012;2023-02-21T06:43:44;46.00;;;25.48;;
54259;SDS011;40172;53.022;7.012;2023-02-21T06:46:14;45.58;;;26.45;;
54259;SDS011;40172;53.022;7.012;2023-02-21T06:48:43;43.28;;;26.35;;
54259;SDS011;40172;53.022;7.012;2023-02-21T06:51:09;43.53;;;26.42;;
54259;SDS011;40172;53.022;7.012;2023-02-21T06:53:36;44.38;;;26.50;;
54259;SDS011;40172;53.022;7.012;2023-02-21T06:56:02;41.75;;;26.35;;
54259;SDS011;40172;53.022;7.012;2023-02-21T06:58:29;43.50;;;26.17;;
54259;SDS011;40172;53.022;7.012;2023-02-21T07:00:54;41.00;;;26.75;;
54259;SDS011;40172;53.022;7.012;2023-02-21T07:03:20;43.28;;;26.40;;
54259;SDS011;40172;53.022;7.012;2023-02-21T07:05:45;40.75;;;26.88;;
54259;SDS011;40172;53.022;7.012;2023-02-21T07:08:11;46.03;;;27.33;;
54259;SDS011;40172;53.022;7.012;2023-02-21T07:10:36;42.85;;;27.13;;
54259;SDS011;40172;53.022;7.012;2023-02-21T07:13:02;46.75;;;26.98;;
54259;SDS011;40172;53.022;7.012;2023-02-21T07:15:28;47.38;;;27.10;;
54259;SDS011;40172;53.022;7.012;2023-02-21T07:17:53;45.55;;;26.50;;
54259;SDS011;40172;53.022;7.012;2023-02-21T07:20:19;41.25;;;26.17;;
54259;SDS011;40172;53.022;7.012;2023-02-21T07:22:44;42.90;;;26.55;;
54259;SDS011;40172;53.022;7.012;2023-02-21T07:25:14;44.60;;;27.80;;
54259;SDS011;40172;53.022;7.012;2023-02-21T07:27:41;44.78;;;27.52;;
54259;SDS011;40172;53.022;7.012;2023-02-21T07:30:07;41.72;;;27.17;;
54259;SDS011;40172;53.022;7.012;2023-02-21T07:32:33;45.20;;;27.73;;
54259;SDS011;40172;53.022;7.012;2023-02-21T07:34:59;48.92;;;28.08;;
54259;SDS011;40172;53.022;7.012;2023-02-21T07:37:24;46.95;;;27.25;;
54259;SDS011;40172;53.022;7.012;2023-02-21T07:39:51;43.63;;;27.63;;
54259;SDS011;40172;53.022;7.012;2023-02-21T07:42:17;46.13;;;26.58;;
54259;SDS011;40172;53.022;7.012;2023-02-21T07:44:43;43.05;;;27.25;;
54259;SDS011;40172;53.022;7.012;2023-02-21T07:47:08;48.47;;;27.00;;
54259;SDS011;40172;53.022;7.012;2023-02-21T07:49:38;44.40;;;26.80;;
54259;SDS011;40172;53.022;7.012;2023-02-21T07:52:04;44.42;;;27.20;;
54259;SDS011;40172;53.022;7.012;2023-02-21T07:54:30;45.17;;;27.67;;
54259;SDS011;40172;53.022;7.012;2023-02-21T07:56:56;46.63;;;28.35;;
54259;SDS011;40172;53.022;7.012;2023-02-21T07:59:22;45.75;;;28.42;;
54259;SDS011;40172;53.022;7.012;2023-02-21T08:01:48;47.30;;;27.42;;
54259;SDS011;40172;53.022;7.012;2023-02-21T08:04:13;46.17;;;27.85;;
54259;SDS011;40172;53.022;7.012;2023-02-21T08:06:44;48.75;;;28.80;;
54259;SDS011;40172;53.022;7.012;2023-02-21T08:09:09;47.47;;;28.80;;
54259;SDS011;40172;53.022;7.012;2023-02-21T08:11:35;44.08;;;28.33;;
54259;SDS011;40172;53.022;7.012;2023-02-21T08:14:01;42.70;;;28.23;;
54259;SDS011;40172;53.022;7.012;2023-02-21T08:16:27;48.08;;;28.77;;
54259;SDS011;40172;53.022;7.012;2023-02-21T08:18:53;44.28;;;27.50;;
54259;SDS011;40172;53.022;7.012;2023-02-21T08:21:18;47.83;;;28.75;;
54259;SDS011;40172;53.022;7.012;2023-02-21T08:23:44;42.85;;;28.33;;
54259;SDS011;40172;53.022;7.012;2023-02-21T08:26:10;46.35;;;29.55;;
54259;SDS011;40172;53.022;7.012;2023-02-21T08:28:35;44.33;;;27.80;;
54259;SDS011;40172;53.022;7.012;2023-02-21T08:31:01;46.10;;;28.17;;
54259;SDS011;40172;53.022;7.012;2023-02-21T08:33:27;48.03;;;29.10;;
54259;SDS011;40172;53.022;7.012;2023-02-21T08:35:53;46.85;;;29.70;;
54259;SDS011;40172;53.022;7.012;2023-02-21T08:38:18;44.80;;;28.75;;
54259;SDS011;40172;53.022;7.012;2023-02-21T08:40:44;46.55;;;28.02;;
54259;SDS011;40172;53.022;7.012;2023-02-21T08:43:10;44.63;;;27.90;;
54259;SDS011;40172;53.022;7.012;2023-02-21T08:45:36;45.00;;;27.67;;
54259;SDS011;40172;53.022;7.012;2023-02-21T08:48:02;43.53;;;27.70;;
54259;SDS011;40172;53.022;7.012;2023-02-21T08:50:28;45.60;;;27.90;;
54259;SDS011;40172;53.022;7.012;2023-02-21T08:52:54;41.97;;;28.77;;
54259;SDS011;40172;53.022;7.012;2023-02-21T08:55:20;46.55;;;28.73;;
54259;SDS011;40172;53.022;7.012;2023-02-21T08:57:47;45.13;;;28.13;;
54259;SDS011;40172;53.022;7.012;2023-02-21T09:00:15;42.42;;;27.73;;
54259;SDS011;40172;53.022;7.012;2023-02-21T09:02:41;44.28;;;28.13;;
54259;SDS011;40172;53.022;7.012;2023-02-21T09:05:26;43.80;;;29.08;;
54259;SDS011;40172;53.022;7.012;2023-02-21T09:07:54;43.50;;;28.90;;
54259;SDS011;40172;53.022;7.012;2023-02-21T09:10:23;45.85;;;28.92;;
54259;SDS011;40172;53.022;7.012;2023-02-21T09:12:49;43.65;;;29.88;;
54259;SDS011;40172;53.022;7.012;2023-02-21T09:15:15;46.13;;;29.58;;
54259;SDS011;40172;53.022;7.012;2023-02-21T09:17:41;44.50;;;28.80;;
54259;SDS011;40172;53.022;7.012;2023-02-21T09:20:08;42.70;;;29.45;;
54259;SDS011;40172;53.022;7.012;2023-02-21T09:22:41;50.85;;;29.60;;
54259;SDS011;40172;53.022;7.012;2023-02-21T09:25:09;47.67;;;29.75;;
54259;SDS011;40172;53.022;7.012;2023-02-21T09:27:37;49.70;;;29.33;;
54259;SDS011;40172;53.022;7.012;2023-02-21T09:30:06;46.00;;;29.58;;
54259;SDS011;40172;53.022;7.012;2023-02-21T09:32:35;46.83;;;29.25;;
54259;SDS011;40172;53.022;7.012;2023-02-21T09:35:01;42.92;;;29.15;;
54259;SDS011;40172;53.022;7.012;2023-02-21T09:37:27;49.13;;;29.10;;
54259;SDS011;40172;53.022;7.012;2023-02-21T09:39:53;41.72;;;28.15;;
54259;SDS011;40172;53.022;7.012;2023-02-21T09:42:20;41.42;;;28.42;;
54259;SDS011;40172;53.022;7.012;2023-02-21T09:47:30;48.05;;;29.52;;
54259;SDS011;40172;53.022;7.012;2023-02-21T09:50:22;42.92;;;28.88;;
54259;SDS011;40172;53.022;7.012;2023-02-21T09:52:51;42.28;;;28.27;;
54259;SDS011;40172;53.022;7.012;2023-02-21T09:58:00;42.28;;;28.95;;
54259;SDS011;40172;53.022;7.012;2023-02-21T10:00:34;35.63;;;26.63;;
54259;SDS011;40172;53.022;7.012;2023-02-21T10:06:01;43.78;;;27.85;;
54259;SDS011;40172;53.022;7.012;2023-02-21T10:08:40;39.75;;;28.35;;
54259;SDS011;40172;53.022;7.012;2023-02-21T10:14:32;46.80;;;29.13;;
54259;SDS011;40172;53.022;7.012;2023-02-21T10:17:20;43.58;;;28.92;;
54259;SDS011;40172;53.022;7.012;2023-02-21T10:20:14;43.10;;;29.88;;
54259;SDS011;40172;53.022;7.012;2023-02-21T10:22:55;40.88;;;29.17;;
54259;SDS011;40172;53.022;7.012;2023-02-21T10:25:28;41.20;;;28.88;;
54259;SDS011;40172;53.022;7.012;2023-02-21T10:27:56;41.95;;;29.90;;
54259;SDS011;40172;53.022;7.012;2023-02-21T10:32:53;42.88;;;28.33;;
54259;SDS011;40172;53.022;7.012;2023-02-21T10:35:19;40.45;;;28.83;;
54259;SDS011;40172;53.022;7.012;2023-02-21T10:37:50;41.67;;;28.58;;
54259;SDS011;40172;53.022;7.012;2023-02-21T10:45:57;40.25;;;29.45;;
54259;SDS011;40172;53.022;7.012;2023-02-21T10:48:35;42.40;;;28.40;;
54259;SDS011;40172;53.022;7.012;2023-02-21T10:53:36;42.50;;;28.43;;
54259;SDS011;40172;53.022;7.012;2023-02-21T10:59:05;37.88;;;27.83;;
54259;SDS011;40172;53.022;7.012;2023-02-21T11:01:35;39.85;;;27.17;;
54259;SDS011;40172;53.022;7.012;2023-02-21T11:04:06;38.42;;;27.10;;
54259;SDS011;40172;53.022;7.012;2023-02-21T11:07:08;39.33;;;28.02;;
54259;SDS011;40172;53.022;7.012;2023-02-21T11:09:40;38.55;;;26.40;;
54259;SDS011;40172;53.022;7.012;2023-02-21T11:12:21;38.13;;;27.60;;
54259;SDS011;40172;53.022;7.012;2023-02-21T11:17:19;42.55;;;28.38;;
54259;SDS011;40172;53.022;7.012;2023-02-21T11:19:54;38.22;;;28.02;;
54259;SDS011;40172;53.022;7.012;2023-02-21T11:31:26;33.97;;;26.50;;
54259;SDS011;40172;53.022;7.012;2023-02-21T11:33:24;40.85;;;29.05;;
54259;SDS011;40172;53.022;7.012;2023-02-21T11:35:51;38.80;;;26.83;;
54259;SDS011;40172;53.022;7.012;2023-02-21T11:38:38;38.67;;;26.73;;
54259;SDS011;40172;53.022;7.012;2023-02-21T11:41:21;36.20;;;26.77;;
54259;SDS011;40172;53.022;7.012;2023-02-21T11:43:52;35.53;;;25.55;;
54259;SDS011;40172;53.022;7.012;2023-02-21T11:52:01;40.13;;;26.58;;
54259;SDS011;40172;53.022;7.012;2023-02-21T11:54:30;35.45;;;26.52;;
54259;SDS011;40172;53.022;7.012;2023-02-21T11:57:58;36.25;;;25.10;;
54259;SDS011;40172;53.022;7.012;2023-02-21T12:05:27;34.78;;;24.98;;
54259;SDS011;40172;53.022;7.012;2023-02-21T12:11:03;37.47;;;27.83;;
54259;SDS011;40172;53.022;7.012;2023-02-21T12:19:38;35.30;;;26.23;;
54259;SDS011;40172;53.022;7.012;2023-02-21T12:25:24;34.28;;;24.55;;
54259;SDS011;40172;53.022;7.012;2023-02-21T12:30:59;31.85;;;24.65;;
54259;SDS011;40172;53.022;7.012;2023-02-21T12:33:44;34.03;;;24.15;;
54259;SDS011;40172;53.022;7.012;2023-02-21T12:41:57;34.60;;;25.65;;
54259;SDS011;40172;53.022;7.012;2023-02-21T12:50:25;37.85;;;25.70;;
54259;SDS011;40172;53.022;7.012;2023-02-21T12:52:58;36.03;;;25.52;;
54259;SDS011;40172;53.022;7.012;2023-02-21T12:55:50;38.65;;;26.10;;
54259;SDS011;40172;53.022;7.012;2023-02-21T12:58:23;35.13;;;26.33;;
54259;SDS011;40172;53.022;7.012;2023-02-21T13:05:45;37.17;;;26.73;;
54259;SDS011;40172;53.022;7.012;2023-02-21T13:08:21;37.60;;;26.77;;
54259;SDS011;40172;53.022;7.012;2023-02-21T13:13:26;36.95;;;25.35;;
54259;SDS011;40172;53.022;7.012;2023-02-21T13:15:56;32.75;;;24.75;;
54259;SDS011;40172;53.022;7.012;2023-02-21T13:18:29;33.30;;;25.15;;
54259;SDS011;40172;53.022;7.012;2023-02-21T13:23:49;31.48;;;24.27;;
54259;SDS011;40172;53.022;7.012;2023-02-21T13:26:56;32.80;;;26.33;;
54259;SDS011;40172;53.022;7.012;2023-02-21T13:29:45;37.28;;;26.30;;
54259;SDS011;40172;53.022;7.012;2023-02-21T13:32:11;37.78;;;25.45;;
54259;SDS011;40172;53.022;7.012;2023-02-21T13:34:47;35.63;;;25.90;;
54259;SDS011;40172;53.022;7.012;2023-02-21T13:37:22;36.03;;;26.02;;
54259;SDS011;40172;53.022;7.012;2023-02-21T13:39:51;35.60;;;27.80;;
54259;SDS011;40172;53.022;7.012;2023-02-21T13:42:25;39.42;;;28.17;;
54259;SDS011;40172;53.022;7.012;2023-02-21T13:45:12;40.85;;;27.98;;
54259;SDS011;40172;53.022;7.012;2023-02-21T13:55:32;40.00;;;29.40;;
54259;SDS011;40172;53.022;7.012;2023-02-21T14:08:29;36.47;;;28.35;;
54259;SDS011;40172;53.022;7.012;2023-02-21T14:19:06;38.17;;;28.52;;
54259;SDS011;40172;53.022;7.012;2023-02-21T14:21:36;40.67;;;27.80;;
54259;SDS011;40172;53.022;7.012;2023-02-21T14:29:38;34.53;;;25.73;;
54259;SDS011;40172;53.022;7.012;2023-02-21T14:37:16;37.40;;;28.20;;
54259;SDS011;40172;53.022;7.012;2023-02-21T14:39:54;33.78;;;26.55;;
54259;SDS011;40172;53.022;7.012;2023-02-21T14:47:39;32.15;;;25.00;;
54259;SDS011;40172;53.022;7.012;2023-02-21T14:53:35;37.97;;;28.98;;
54259;SDS011;40172;53.022;7.012;2023-02-21T14:56:28;41.13;;;29.65;;
54259;SDS011;40172;53.022;7.012;2023-02-21T15:08:04;38.53;;;29.15;;
54259;SDS011;40172;53.022;7.012;2023-02-21T15:10:41;42.67;;;30.27;;
54259;SDS011;40172;53.022;7.012;2023-02-21T15:13:21;41.75;;;28.98;;
54259;SDS011;40172;53.022;7.012;2023-02-21T15:15:53;38.80;;;26.92;;
54259;SDS011;40172;53.022;7.012;2023-02-21T15:18:24;37.88;;;27.83;;
54259;SDS011;40172;53.022;7.012;2023-02-21T15:21:02;31.35;;;23.52;;
54259;SDS011;40172;53.022;7.012;2023-02-21T15:23:58;45.58;;;29.83;;
54259;SDS011;40172;53.022;7.012;2023-02-21T15:26:36;43.15;;;31.55;;
54259;SDS011;40172;53.022;7.012;2023-02-21T15:29:04;35.00;;;26.13;;
54259;SDS011;40172;53.022;7.012;2023-02-21T15:31:54;36.47;;;28.85;;
54259;SDS011;40172;53.022;7.012;2023-02-21T15:34:29;35.10;;;26.65;;
54259;SDS011;40172;53.022;7.012;2023-02-21T15:37:18;38.05;;;28.73;;
54259;SDS011;40172;53.022;7.012;2023-02-21T15:39:50;46.15;;;31.17;;
54259;SDS011;40172;53.022;7.012;2023-02-21T15:42:18;41.80;;;29.65;;
54259;SDS011;40172;53.022;7.012;2023-02-21T15:44:46;40.70;;;29.92;;
54259;SDS011;40172;53.022;7.012;2023-02-21T15:47:24;42.55;;;30.63;;
54259;SDS011;40172;53.022;7.012;2023-02-21T15:50:08;41.90;;;29.02;;
54259;SDS011;40172;53.022;7.012;2023-02-21T15:52:39;41.08;;;29.65;;
54259;SDS011;40172;53.022;7.012;2023-02-21T15:57:37;41.15;;;28.52;;
54259;SDS011;40172;53.022;7.012;2023-02-21T16:02:47;48.15;;;31.83;;
54259;SDS011;40172;53.022;7.012;2023-02-21T16:05:21;48.53;;;32.88;;
54259;SDS011;40172;53.022;7.012;2023-02-21T16:07:52;44.38;;;30.85;;
54259;SDS011;40172;53.022;7.012;2023-02-21T16:10:24;44.10;;;32.55;;
54259;SDS011;40172;53.022;7.012;2023-02-21T16:12:54;47.28;;;32.05;;
54259;SDS011;40172;53.022;7.012;2023-02-21T16:15:23;44.13;;;32.00;;
54259;SDS011;40172;53.022;7.012;2023-02-21T16:17:51;47.15;;;30.95;;
54259;SDS011;40172;53.022;7.012;2023-02-21T16:20:23;44.03;;;32.35;;
54259;SDS011;40172;53.022;7.012;2023-02-21T16:23:18;46.50;;;31.95;;
54259;SDS011;40172;53.022;7.012;2023-02-21T16:28:33;48.92;;;33.15;;
54259;SDS011;40172;53.022;7.012;2023-02-21T16:31:01;47.42;;;32.78;;
54259;SDS011;40172;53.022;7.012;2023-02-21T16:33:29;49.65;;;33.08;;
54259;SDS011;40172;53.022;7.012;2023-02-21T16:35:55;46.67;;;32.95;;
54259;SDS011;40172;53.022;7.012;2023-02-21T16:38:23;49.53;;;34.05;;
54259;SDS011;40172;53.022;7.012;2023-02-21T16:40:50;51.83;;;34.72;;
54259;SDS011;40172;53.022;7.012;2023-02-21T16:43:26;50.63;;;34.70;;
54259;SDS011;40172;53.022;7.012;2023-02-21T16:45:56;54.08;;;35.72;;
54259;SDS011;40172;53.022;7.012;2023-02-21T16:48:24;60.10;;;36.05;;
54259;SDS011;40172;53.022;7.012;2023-02-21T16:50:57;56.97;;;35.85;;
54259;SDS011;40172;53.022;7.012;2023-02-21T16:53:26;59.85;;;38.35;;
54259;SDS011;40172;53.022;7.012;2023-02-21T16:55:51;64.28;;;39.00;;
54259;SDS011;40172;53.022;7.012;2023-02-21T16:58:18;63.20;;;40.30;;
54259;SDS011;40172;53.022;7.012;2023-02-21T17:00:57;65.10;;;40.30;;
54259;SDS011;40172;53.022;7.012;2023-02-21T17:03:26;65.90;;;40.95;;
54259;SDS011;40172;53.022;7.012;2023-02-21T17:05:55;69.75;;;42.13;;
54259;SDS011;40172;53.022;7.012;2023-02-21T17:08:22;77.00;;;43.83;;
54259;SDS011;40172;53.022;7.012;2023-02-21T17:10:49;80.88;;;44.22;;
54259;SDS011;40172;53.022;7.012;2023-02-21T17:13:14;78.90;;;45.55;;
54259;SDS011;40172;53.022;7.012;2023-02-21T17:15:40;83.05;;;46.60;;
54259;SDS011;40172;53.022;7.012;2023-02-21T17:18:05;86.70;;;45.92;;
54259;SDS011;40172;53.022;7.012;2023-02-21T17:20:31;86.40;;;47.05;;
54259;SDS011;40172;53.022;7.012;2023-02-21T17:22:57;88.43;;;47.60;;
54259;SDS011;40172;53.022;7.012;2023-02-21T17:25:23;87.25;;;48.33;;
54259;SDS011;40172;53.022;7.012;2023-02-21T17:27:50;99.10;;;49.45;;
54259;SDS011;40172;53.022;7.012;2023-02-21T17:30:17;100.15;;;51.78;;
54259;SDS011;40172;53.022;7.012;2023-02-21T17:32:44;101.65;;;52.00;;
54259;SDS011;40172;53.022;7.012;2023-02-21T17:35:11;98.68;;;51.63;;
54259;SDS011;40172;53.022;7.012;2023-02-21T17:37:41;104.43;;;52.33;;
54259;SDS011;40172;53.022;7.012;2023-02-21T17:40:07;105.53;;;52.40;;
54259;SDS011;40172;53.022;7.012;2023-02-21T17:42:34;108.50;;;53.75;;
54259;SDS011;40172;53.022;7.012;2023-02-21T17:44:59;114.57;;;54.75;;
54259;SDS011;40172;53.022;7.012;2023-02-21T17:47:26;114.35;;;54.67;;
54259;SDS011;40172;53.022;7.012;2023-02-21T17:49:52;124.28;;;56.08;;
54259;SDS011;40172;53.022;7.012;2023-02-21T17:52:18;119.43;;;55.65;;
54259;SDS011;40172;53.022;7.012;2023-02-21T17:54:44;115.97;;;54.58;;
54259;SDS011;40172;53.022;7.012;2023-02-21T17:57:10;127.85;;;57.50;;
54259;SDS011;40172;53.022;7.012;2023-02-21T17:59:36;132.32;;;58.75;;